createdAt,value
2022-11-29T00:01:40.966Z,13.57
2022-11-29T00:04:08.364Z,12.98
2022-11-29T00:06:36.380Z,13.90
2022-11-29T00:09:09.003Z,13.43
2022-11-29T00:11:56.736Z,13.20
2022-11-29T00:14:25.031Z,16.02
2022-11-29T00:16:59.501Z,15.90
2022-11-29T00:19:29.263Z,15.77
2022-11-29T00:21:57.549Z,15.68
2022-11-29T00:24:29.126Z,15.50
2022-11-29T00:26:57.078Z,15.93
2022-11-29T00:29:24.351Z,16.42
2022-11-29T00:31:54.723Z,16.45
2022-11-29T00:34:22.232Z,16.65
2022-11-29T00:36:49.224Z,16.42
2022-11-29T00:39:21.821Z,14.75
2022-11-29T00:41:48.953Z,14.32
2022-11-29T00:44:20.128Z,14.25
2022-11-29T00:46:50.321Z,12.30
2022-11-29T00:49:17.739Z,12.23
2022-11-29T00:51:51.011Z,12.73
2022-11-29T00:54:18.133Z,12.65
2022-11-29T00:56:50.692Z,11.90
2022-11-29T00:59:18.621Z,11.50
2022-11-29T01:01:48.296Z,11.35
2022-11-29T01:04:18.506Z,10.45
2022-11-29T01:06:45.761Z,10.30
2022-11-29T01:09:17.712Z,12.30
2022-11-29T01:11:45.243Z,12.27
2022-11-29T01:14:12.724Z,13.63
2022-11-29T01:16:39.863Z,14.13
2022-11-29T01:19:09.410Z,13.82
2022-11-29T01:21:38.280Z,13.25
2022-11-29T01:24:07.747Z,12.40
2022-11-29T01:26:35.390Z,13.50
2022-11-29T01:29:02.611Z,12.55
2022-11-29T01:31:37.654Z,12.57
2022-11-29T01:34:07.300Z,12.48
2022-11-29T01:36:35.380Z,12.35
2022-11-29T01:39:10.975Z,13.25
2022-11-29T01:41:39.486Z,12.77
2022-11-29T01:44:26.801Z,11.85
2022-11-29T01:46:55.090Z,12.32
2022-11-29T01:49:44.462Z,13.63
2022-11-29T01:52:18.077Z,12.57
2022-11-29T01:54:48.582Z,12.85
2022-11-29T01:57:20.471Z,12.40
2022-11-29T01:59:51.878Z,13.00
2022-11-29T02:02:32.737Z,12.82
2022-11-29T02:05:02.453Z,13.48
2022-11-29T02:07:30.385Z,13.82
2022-11-29T02:09:58.815Z,12.77
2022-11-29T02:12:46.324Z,12.93
2022-11-29T02:15:36.189Z,12.68
2022-11-29T02:18:15.788Z,12.55
2022-11-29T02:20:42.748Z,13.05
2022-11-29T02:23:14.898Z,13.00
2022-11-29T02:25:58.013Z,12.95
2022-11-29T02:28:37.310Z,12.40
2022-11-29T02:31:31.348Z,11.85
2022-11-29T02:34:07.384Z,11.82
2022-11-29T02:36:57.070Z,11.43
2022-11-29T02:39:42.647Z,11.90
2022-11-29T02:42:21.957Z,12.40
2022-11-29T02:45:22.600Z,11.38
2022-11-29T02:48:22.637Z,11.80
2022-11-29T02:50:56.188Z,10.20
2022-11-29T02:53:47.711Z,11.32
2022-11-29T02:56:21.366Z,9.77
2022-11-29T02:59:28.700Z,9.82
2022-11-29T03:02:17.329Z,9.88
2022-11-29T03:04:59.263Z,10.25
2022-11-29T03:07:39.231Z,9.70
2022-11-29T03:10:07.124Z,8.95
2022-11-29T03:12:41.699Z,10.45
2022-11-29T03:15:20.979Z,9.65
2022-11-29T03:18:09.462Z,9.70
2022-11-29T03:21:04.602Z,9.77
2022-11-29T03:24:12.297Z,9.25
2022-11-29T03:26:44.375Z,10.75
2022-11-29T03:29:29.473Z,10.25
2022-11-29T03:32:17.810Z,10.35
2022-11-29T03:35:13.020Z,9.55
2022-11-29T03:37:50.570Z,9.73
2022-11-29T03:40:24.389Z,9.32
2022-11-29T03:43:04.340Z,9.38
2022-11-29T03:46:07.395Z,9.93
2022-11-29T03:48:43.687Z,9.98
2022-11-29T03:51:35.448Z,9.88
2022-11-29T03:54:07.935Z,10.15
2022-11-29T03:56:38.433Z,10.20
2022-11-29T03:59:24.326Z,11.23
2022-11-29T04:02:04.598Z,10.30
2022-11-29T04:04:37.515Z,10.25
2022-11-29T04:07:12.442Z,9.93
2022-11-29T04:10:07.306Z,9.80
2022-11-29T04:13:12.402Z,10.93
2022-11-29T04:15:58.371Z,10.38
2022-11-29T04:18:28.257Z,10.20
2022-11-29T04:21:17.568Z,10.82
2022-11-29T04:23:56.725Z,9.23
2022-11-29T04:26:55.664Z,9.40
2022-11-29T04:29:50.193Z,9.80
2022-11-29T04:32:40.001Z,11.55
2022-11-29T04:35:28.655Z,12.15
2022-11-29T04:38:22.933Z,10.07
2022-11-29T04:41:13.046Z,11.38
2022-11-29T04:43:52.152Z,10.18
2022-11-29T04:46:56.883Z,9.93
2022-11-29T04:50:09.340Z,9.60
2022-11-29T04:53:07.294Z,9.38
2022-11-29T04:55:49.532Z,14.10
2022-11-29T04:58:16.962Z,15.27
2022-11-29T05:01:07.035Z,15.73
2022-11-29T05:03:47.085Z,11.90
2022-11-29T05:06:47.225Z,10.93
2022-11-29T05:09:26.261Z,10.20
2022-11-29T05:12:19.808Z,10.48
2022-11-29T05:15:35.888Z,9.43
2022-11-29T05:18:11.768Z,9.57
2022-11-29T05:21:06.411Z,9.13
2022-11-29T05:24:20.496Z,9.93
2022-11-29T05:27:07.682Z,9.68
2022-11-29T05:29:48.542Z,9.82
2022-11-29T05:32:58.335Z,10.35
2022-11-29T05:36:01.827Z,10.60
2022-11-29T05:38:54.068Z,10.27
2022-11-29T05:44:15.911Z,11.60
2022-11-29T05:47:19.281Z,11.75
2022-11-29T05:50:10.667Z,12.23
2022-11-29T05:53:07.054Z,12.53
2022-11-29T05:56:11.150Z,18.40
2022-11-29T05:58:44.194Z,11.93
2022-11-29T06:01:49.637Z,11.15
2022-11-29T06:04:59.327Z,12.07
2022-11-29T06:07:54.587Z,12.45
2022-11-29T06:10:33.751Z,12.23
2022-11-29T06:13:39.716Z,10.43
2022-11-29T06:16:40.820Z,10.98
2022-11-29T06:19:42.827Z,11.48
2022-11-29T06:22:37.677Z,10.93
2022-11-29T06:25:21.835Z,11.90
2022-11-29T06:28:24.719Z,10.27
2022-11-29T06:31:28.942Z,11.38
2022-11-29T06:34:25.083Z,10.27
2022-11-29T06:37:36.037Z,10.82
2022-11-29T06:40:06.331Z,10.05
2022-11-29T06:42:33.843Z,9.57
2022-11-29T06:45:01.211Z,10.73
2022-11-29T06:47:59.726Z,11.45
2022-11-29T06:50:38.925Z,11.85
2022-11-29T06:53:28.164Z,11.45
2022-11-29T06:56:40.956Z,12.43
2022-11-29T06:59:40.385Z,11.93
2022-11-29T07:02:28.769Z,11.80
2022-11-29T07:05:41.766Z,11.48
2022-11-29T07:08:41.985Z,10.38
2022-11-29T07:11:17.408Z,10.82
2022-11-29T07:13:44.732Z,10.77
2022-11-29T07:16:22.690Z,10.38
2022-11-29T07:19:25.408Z,10.15
2022-11-29T07:22:12.809Z,9.93
2022-11-29T07:24:52.714Z,10.03
2022-11-29T07:27:52.013Z,10.57
2022-11-29T07:30:32.463Z,10.25
2022-11-29T07:37:17.153Z,11.15
2022-11-29T07:43:04.971Z,10.70
2022-11-29T07:48:42.798Z,30.83
2022-11-29T07:51:35.325Z,41.70
2022-11-29T07:54:28.137Z,31.30
2022-11-29T07:57:14.948Z,31.70
2022-11-29T07:59:42.526Z,31.85
2022-11-29T08:02:29.538Z,18.38
2022-11-29T08:05:03.698Z,13.45
2022-11-29T08:10:28.569Z,12.15
2022-11-29T08:12:59.525Z,13.00
2022-11-29T08:15:27.665Z,12.50
2022-11-29T08:18:06.474Z,12.43
2022-11-29T08:20:50.652Z,12.18
2022-11-29T08:23:23.805Z,10.93
2022-11-29T08:26:54.447Z,11.93
2022-11-29T08:29:28.827Z,13.13
2022-11-29T08:35:56.696Z,13.23
2022-11-29T08:38:32.013Z,12.18
2022-11-29T08:41:29.526Z,13.60
2022-11-29T08:44:03.797Z,13.05
2022-11-29T08:46:57.859Z,12.90
2022-11-29T08:49:26.757Z,13.57
2022-11-29T08:52:18.685Z,13.20
2022-11-29T08:57:41.467Z,12.25
2022-11-29T09:00:16.391Z,13.13
2022-11-29T09:02:49.145Z,12.48
2022-11-29T09:09:46.742Z,11.68
2022-11-29T09:12:15.414Z,12.55
2022-11-29T09:14:46.003Z,12.73
2022-11-29T09:17:46.073Z,12.98
2022-11-29T09:23:33.692Z,14.23
2022-11-29T09:26:03.291Z,10.55
2022-11-29T09:28:34.178Z,13.63
2022-11-29T09:31:20.281Z,12.52
2022-11-29T09:36:39.371Z,12.35
2022-11-29T09:39:34.302Z,13.88
2022-11-29T09:42:35.957Z,13.57
2022-11-29T09:45:18.362Z,13.45
2022-11-29T09:51:44.165Z,13.00
2022-11-29T09:54:44.525Z,12.63
2022-11-29T10:00:32.237Z,12.23
2022-11-29T10:03:25.762Z,12.50
2022-11-29T10:07:00.485Z,11.75
2022-11-29T10:12:51.802Z,11.65
2022-11-29T10:15:26.947Z,11.40
2022-11-29T10:17:59.369Z,11.05
2022-11-29T10:20:55.567Z,11.68
2022-11-29T10:23:53.072Z,10.93
2022-11-29T10:26:23.254Z,10.55
2022-11-29T10:29:03.989Z,11.90
2022-11-29T10:35:30.401Z,10.40
2022-11-29T10:38:29.675Z,18.63
2022-11-29T10:44:22.872Z,15.48
2022-11-29T10:47:10.890Z,11.98
2022-11-29T10:49:41.621Z,10.85
2022-11-29T10:52:36.316Z,11.40
2022-11-29T10:55:18.439Z,11.25
2022-11-29T11:06:00.968Z,13.90
2022-11-29T11:08:36.063Z,11.90
2022-11-29T11:11:10.483Z,11.30
2022-11-29T11:20:53.249Z,10.60
2022-11-29T11:26:52.054Z,10.32
2022-11-29T11:36:35.495Z,11.07
2022-11-29T11:39:21.469Z,11.35
2022-11-29T11:42:18.654Z,10.45
2022-11-29T11:44:57.104Z,9.93
2022-11-29T11:50:58.567Z,11.13
2022-11-29T11:53:45.078Z,11.55
2022-11-29T11:56:22.238Z,12.07
2022-11-29T12:05:54.341Z,9.65
2022-11-29T12:08:45.666Z,10.07
2022-11-29T12:11:52.850Z,9.43
2022-11-29T12:14:55.635Z,9.20
2022-11-29T12:18:11.508Z,9.85
2022-11-29T12:21:05.446Z,8.48
2022-11-29T12:29:36.023Z,8.75
2022-11-29T12:32:43.917Z,8.50
2022-11-29T12:35:28.674Z,8.43
2022-11-29T12:38:18.479Z,9.35
2022-11-29T12:41:23.495Z,9.15
2022-11-29T12:44:31.764Z,8.85
2022-11-29T12:47:39.503Z,9.20
2022-11-29T12:50:55.329Z,9.88
2022-11-29T12:54:27.333Z,8.45
2022-11-29T13:00:29.526Z,8.38
2022-11-29T13:03:25.138Z,8.35
2022-11-29T13:06:21.571Z,8.48
2022-11-29T13:09:05.930Z,8.32
2022-11-29T13:15:19.696Z,8.75
2022-11-29T13:18:11.983Z,8.70
2022-11-29T13:21:15.402Z,8.13
2022-11-29T13:24:29.587Z,8.38
2022-11-29T13:27:42.045Z,9.48
2022-11-29T13:33:10.809Z,9.15
2022-11-29T13:36:24.744Z,8.60
2022-11-29T13:39:39.482Z,8.40
2022-11-29T13:42:38.160Z,9.98
2022-11-29T13:45:36.028Z,9.98
2022-11-29T13:48:43.006Z,10.30
2022-11-29T13:51:37.847Z,16.77
2022-11-29T13:54:29.210Z,13.25
2022-11-29T13:58:14.396Z,18.65
2022-11-29T14:04:47.841Z,12.75
2022-11-29T14:13:00.085Z,11.90
2022-11-29T14:15:31.351Z,12.00
2022-11-29T14:18:05.996Z,8.82
2022-11-29T14:20:47.692Z,11.60
2022-11-29T14:23:38.855Z,12.68
2022-11-29T14:26:47.663Z,13.05
2022-11-29T14:29:53.556Z,21.17
2022-11-29T14:32:25.100Z,15.02
2022-11-29T14:35:20.306Z,22.73
2022-11-29T14:38:06.701Z,18.27
2022-11-29T14:40:46.564Z,18.10
2022-11-29T14:43:55.042Z,19.55
2022-11-29T14:46:33.530Z,20.38
2022-11-29T14:49:03.745Z,20.23
2022-11-29T14:51:35.334Z,21.10
2022-11-29T14:54:18.203Z,20.70
2022-11-29T14:56:47.481Z,19.98
2022-11-29T14:59:39.265Z,18.50
2022-11-29T15:02:25.031Z,21.02
2022-11-29T15:05:00.430Z,19.48
2022-11-29T15:07:30.428Z,18.80
2022-11-29T15:10:02.013Z,18.00
2022-11-29T15:15:40.161Z,17.13
2022-11-29T15:18:30.410Z,17.35
2022-11-29T15:21:37.856Z,18.48
2022-11-29T15:24:24.962Z,15.00
2022-11-29T15:27:25.610Z,14.80
2022-11-29T15:29:59.315Z,14.60
2022-11-29T15:35:35.439Z,13.80
2022-11-29T15:38:19.624Z,15.57
2022-11-29T15:44:07.641Z,15.45
2022-11-29T15:46:41.790Z,16.25
2022-11-29T15:49:25.252Z,15.10
2022-11-29T15:52:40.541Z,14.73
2022-11-29T15:56:14.285Z,13.40
2022-11-29T15:59:19.082Z,15.48
2022-11-29T16:02:52.429Z,15.80
2022-11-29T16:08:54.971Z,17.50
2022-11-29T16:16:34.731Z,18.88
2022-11-29T16:23:14.978Z,17.58
2022-11-29T16:30:02.119Z,16.35
2022-11-29T16:32:58.505Z,15.00
2022-11-29T16:35:52.581Z,17.63
2022-11-29T16:38:34.250Z,21.58
2022-11-29T16:41:35.784Z,24.40
2022-11-29T16:44:08.728Z,11.73
2022-11-29T16:47:20.160Z,10.32
2022-11-29T16:50:40.249Z,10.45
2022-11-29T16:53:48.168Z,10.85
2022-11-29T16:56:21.162Z,11.55
2022-11-29T16:59:26.330Z,11.93
2022-11-29T17:02:24.655Z,12.45
2022-11-29T17:04:57.945Z,12.90
2022-11-29T17:10:37.985Z,13.25
2022-11-29T17:13:19.533Z,18.15
2022-11-29T17:15:51.484Z,14.93
2022-11-29T17:18:52.771Z,14.77
2022-11-29T17:25:15.269Z,16.27
2022-11-29T17:28:08.107Z,13.60
2022-11-29T17:30:41.547Z,14.50
2022-11-29T17:33:16.351Z,14.88
2022-11-29T17:35:45.481Z,14.40
2022-11-29T17:41:06.120Z,24.10
2022-11-29T17:43:48.969Z,24.17
2022-11-29T17:49:47.531Z,46.30
2022-11-29T17:52:29.895Z,29.30
2022-11-29T17:55:29.705Z,23.70
2022-11-29T17:58:31.465Z,21.33
2022-11-29T18:01:34.954Z,17.25
2022-11-29T18:04:28.641Z,21.65
2022-11-29T18:08:10.560Z,26.20
2022-11-29T18:10:53.960Z,44.45
2022-11-29T18:13:34.125Z,32.63
2022-11-29T18:16:22.231Z,17.50
2022-11-29T18:19:01.306Z,13.02
2022-11-29T18:21:34.281Z,13.10
2022-11-29T18:27:08.758Z,12.15
2022-11-29T18:30:18.497Z,12.50
2022-11-29T18:35:55.733Z,13.07
2022-11-29T18:38:32.662Z,14.73
2022-11-29T18:41:32.713Z,14.25
2022-11-29T18:44:12.644Z,12.50
2022-11-29T18:46:47.510Z,12.25
2022-11-29T18:49:19.005Z,11.55
2022-11-29T18:52:00.046Z,11.77
2022-11-29T18:54:45.899Z,11.52
2022-11-29T18:57:26.140Z,10.88
2022-11-29T19:00:21.331Z,11.82
2022-11-29T19:02:48.583Z,11.93
2022-11-29T19:05:19.962Z,13.13
2022-11-29T19:08:26.014Z,9.95
2022-11-29T19:10:55.782Z,12.32
2022-11-29T19:16:28.743Z,12.52
2022-11-29T19:18:57.497Z,12.10
2022-11-29T19:30:17.499Z,12.50
2022-11-29T19:34:15.609Z,13.10
2022-11-29T19:47:58.122Z,11.18
2022-11-29T19:50:51.757Z,11.00
2022-11-29T19:53:46.546Z,11.05
2022-11-29T19:56:30.211Z,11.75
2022-11-29T19:59:15.974Z,11.38
2022-11-29T20:01:48.105Z,11.80
2022-11-29T20:04:32.127Z,11.48
2022-11-29T20:07:11.758Z,14.45
2022-11-29T20:10:17.482Z,13.48
2022-11-29T20:13:02.047Z,12.27
2022-11-29T20:15:33.044Z,12.30
2022-11-29T20:21:37.154Z,11.45
2022-11-29T20:24:15.984Z,11.95
2022-11-29T20:27:03.470Z,12.13
2022-11-29T20:29:34.323Z,13.07
2022-11-29T20:34:44.884Z,12.50
2022-11-29T20:38:03.186Z,10.90
2022-11-29T20:41:01.028Z,11.30
2022-11-29T20:43:44.450Z,10.80
2022-11-29T20:46:12.484Z,14.73
2022-11-29T20:48:41.665Z,16.50
2022-11-29T20:51:13.154Z,17.38
2022-11-29T20:56:37.176Z,15.80
2022-11-29T20:59:11.869Z,13.32
2022-11-29T21:01:54.632Z,12.73
2022-11-29T21:07:14.792Z,11.70
2022-11-29T21:13:14.849Z,12.10
2022-11-29T21:16:20.277Z,12.20
2022-11-29T21:19:07.509Z,11.35
2022-11-29T21:25:33.106Z,13.30
2022-11-29T21:29:07.059Z,11.45
2022-11-29T21:32:21.706Z,11.43
2022-11-29T21:40:55.800Z,12.33
2022-11-29T21:44:04.167Z,11.45
2022-11-29T21:47:00.931Z,11.57
2022-11-29T21:50:11.696Z,12.15
2022-11-29T21:52:51.648Z,11.37
2022-11-29T21:55:54.329Z,12.20
2022-11-29T22:01:36.795Z,12.43
2022-11-29T22:04:09.482Z,12.60
2022-11-29T22:07:01.072Z,11.85
2022-11-29T22:09:35.691Z,12.68
2022-11-29T22:12:33.092Z,13.60
2022-11-29T22:18:10.849Z,12.40
2022-11-29T22:20:43.982Z,12.85
2022-11-29T22:24:19.078Z,12.85
2022-11-29T22:31:40.415Z,12.30
2022-11-29T22:34:14.982Z,12.40
2022-11-29T22:41:15.734Z,13.80
2022-11-29T22:43:54.927Z,16.75
2022-11-29T22:50:41.754Z,16.85
2022-11-29T22:53:13.334Z,22.42
2022-11-29T22:59:01.905Z,36.88
2022-11-29T23:02:05.939Z,15.88
2022-11-29T23:07:44.457Z,16.27
2022-11-29T23:13:31.295Z,12.20
2022-11-29T23:16:03.516Z,19.83
2022-11-29T23:18:49.742Z,16.10
2022-11-29T23:21:54.858Z,26.80
2022-11-29T23:24:31.230Z,9.45
2022-11-29T23:27:16.246Z,12.73
2022-11-29T23:29:53.118Z,12.05
2022-11-29T23:32:28.715Z,12.52
2022-11-29T23:43:49.022Z,12.02
2022-11-29T23:46:36.247Z,13.23
2022-11-29T23:51:48.929Z,12.65
2022-11-29T23:58:16.112Z,12.43
